Ana Sayfa
METAR-TAF:

METAR-TAF

Havaalanları :

Kupang, Endonezya

Enlem: 10-10-17S, Boylam: 123-40-16E, yükseklik: 102 m

Güncel hava durumu gözlemi

Rapor saat 08:30 UTC de 39 dakika önce yapıldı.
Rüzgar güney/güneybatıdan 9 kt
Sıcaklık 32°C
Nem 59%
Basınç 1008 hPa
Görüş mesafesi 10 km veya daha fazla
1800 ft yükseklikte az bulutlu

METAR: WATT 070830Z 20009KT 9999 FEW018 32/23 Q1008 NOSIG

Saat: 16:09 (09:09 UTC)

Tahmin

Rapor saat 05:00 UTC de 4 saat ve 9 dakika önce yapıldı.
Ayın 07'si saat 06 UTC'den ayın 08'si saat 06 UTC'ye kadar geçerli Tahmin
Rüzgar kuzeybatıdan 10 kt
Görüş mesafesi 10 km veya daha fazla
1800 ft yükseklikte parçalı bulutlu
Geçici
ayın 07'si saat 08 UTC'den ayın 07'si saat 10 UTC'ye kadar
1700 ft yükseklikte az bulutlu, Kümülonimbus.
gök gürültülü fırtına
Dönüşüyor
ayın 07'si saat 10 UTC'den ayın 07'si saat 12 UTC'ye kadar
Rüzgar doğu/güneydoğudan 4 kt

TAF: WATT 070500Z 0706/0806 31010KT 9999 SCT018 TEMPO 0708/0710 TS FEW017CB BECMG 0710/0712 12004KT

4.000'den fazla havaalanı için hava durumu gözlemleri ve tahminleri (METAR ve TAF raporları).

Kullanılabilir istasyonlar harita üzerinde sarı ve kırmızı noktalarla gösterilir.

İstasyonun adını görmek için fareyi noktanın üzerinde gezdirin.

Sonrasında hava gözlem ve tahminlerini görmek için tıklayın.

Haritayı değiştirmek için: yaklaştırmak için siyah artı işaretli yeşil düğmeye ve uzaklaştırmak için de eksi işaretli düğmeye hızla tıklayın; bitişik haritalar için yeşil okları kullanın.


METAR-TAF: